Time;durP1;ratioP1;P1;durP2;ratioP2;P2;SDS_P1;SDS_P2;PMS_P1;PMS_P2;Temp;Humidity;BMP_temperature;BMP_pressure;BME280_temperature;BME280_humidity;BME280_pressure;Samples;Min_cycle;Max_cycle;Signal;HPM_P1;HPM_P2
2022/08/06 00:09:05;;;;;;;4.93;1.97;;;21.10;65.20;;;;;;21000341;28;20295;-72
2022/08/06 00:19:08;;;;;;;3.43;1.87;;;21.10;65.60;;;;;;20972215;28;20597;-72
2022/08/06 00:29:18;;;;;;;5.27;1.80;;;21.00;66.10;;;;;;20912441;28;20284;-71
2022/08/06 00:39:42;;;;;;;2.10;1.70;;;20.90;66.70;;;;;;20916529;28;20288;-72
2022/08/06 00:49:44;;;;;;;4.77;2.33;;;20.60;68.10;;;;;;20914025;28;20282;-72
2022/08/06 00:59:51;;;;;;;3.63;2.00;;;20.50;70.00;;;;;;20913849;28;20239;-72
2022/08/06 01:09:53;;;;;;;3.80;2.00;;;20.30;71.50;;;;;;20924351;28;20279;-72
2022/08/06 01:20:21;;;;;;;2.53;2.20;;;20.20;72.60;;;;;;21035392;28;20209;-74
2022/08/06 01:30:50;;;;;;;3.13;2.13;;;20.10;73.10;;;;;;21030620;28;20234;-73
2022/08/06 01:40:54;;;;;;;3.07;1.90;;;20.00;73.50;;;;;;21063150;28;20210;-73
2022/08/06 01:50:59;;;;;;;2.93;2.30;;;20.00;73.40;;;;;;21027207;28;20343;-73
2022/08/06 02:01:04;;;;;;;3.10;1.90;;;19.90;72.50;;;;;;21066114;28;20213;-72
2022/08/06 02:11:10;;;;;;;3.03;1.90;;;19.80;72.80;;;;;;21009653;28;20245;-72
2022/08/06 02:21:34;;;;;;;3.10;1.90;;;19.80;73.60;;;;;;20954797;28;20206;-73
2022/08/06 02:31:36;;;;;;;3.57;1.97;;;19.80;73.80;;;;;;20911763;28;20271;-72
2022/08/06 02:42:03;;;;;;;3.03;2.10;;;19.70;73.40;;;;;;20924277;28;20552;-72
2022/08/06 02:52:16;;;;;;;5.67;2.30;;;19.70;74.00;;;;;;20923438;28;20240;-71
2022/08/06 03:02:40;;;;;;;3.23;2.20;;;19.70;74.10;;;;;;20922814;28;20262;-72
2022/08/06 03:12:46;;;;;;;4.23;2.87;;;19.60;74.30;;;;;;20921775;28;20245;-72
2022/08/06 03:22:51;;;;;;;3.53;2.60;;;19.50;74.70;;;;;;20921167;28;20216;-72
2022/08/06 03:32:55;;;;;;;8.80;3.10;;;19.40;75.40;;;;;;20920318;28;20251;-72
2022/08/06 03:43:08;;;;;;;2.83;2.20;;;19.30;75.50;;;;;;20925200;28;20236;-72
2022/08/06 03:53:24;;;;;;;7.13;2.40;;;19.10;76.00;;;;;;20928615;28;20246;-72
2022/08/06 04:03:27;;;;;;;2.50;2.10;;;19.10;76.60;;;;;;20917761;28;20212;-72
2022/08/06 04:13:30;;;;;;;4.10;2.23;;;18.90;76.80;;;;;;20916824;28;20236;-72
2022/08/06 04:23:52;;;;;;;3.33;2.27;;;18.90;76.80;;;;;;20914814;28;20244;-72
2022/08/06 04:33:58;;;;;;;2.93;2.20;;;18.90;76.80;;;;;;20914052;28;20236;-72
2022/08/06 04:44:00;;;;;;;7.73;3.33;;;18.90;76.90;;;;;;20916436;28;20211;-72
2022/08/06 04:54:06;;;;;;;3.53;3.10;;;18.90;77.50;;;;;;20930991;28;20334;-70
2022/08/06 05:04:13;;;;;;;6.00;2.73;;;18.90;77.20;;;;;;20922553;28;20232;-70
2022/08/06 05:14:24;;;;;;;5.33;2.90;;;19.00;77.00;;;;;;20913146;28;20215;-71
2022/08/06 05:24:27;;;;;;;5.50;2.00;;;19.10;77.10;;;;;;20912620;28;20210;-71
2022/08/06 05:34:40;;;;;;;3.10;1.67;;;19.20;76.30;;;;;;20990395;28;20623;-70
2022/08/06 05:44:52;;;;;;;2.43;1.50;;;19.20;74.60;;;;;;20994373;28;20280;-71
2022/08/06 05:55:02;;;;;;;1.43;1.20;;;19.20;72.60;;;;;;20992011;28;20244;-70
2022/08/06 06:05:06;;;;;;;2.33;1.10;;;19.40;70.40;;;;;;20999223;28;20232;-69
2022/08/06 06:15:28;;;;;;;3.37;1.10;;;19.50;67.50;;;;;;21011106;28;20664;-70
2022/08/06 06:26:15;;;;;;;1.30;1.10;;;19.50;65.30;;;;;;20967836;28;20233;-72
2022/08/06 06:37:03;;;;;;;2.40;1.10;;;19.70;63.80;;;;;;20998106;28;20217;-71
2022/08/06 06:47:36;;;;;;;2.20;1.07;;;19.70;62.50;;;;;;20967887;28;20709;-69
2022/08/06 06:57:43;;;;;;;2.90;1.20;;;19.90;61.80;;;;;;21005875;28;20244;-71
2022/08/06 07:07:49;;;;;;;3.40;1.17;;;20.10;60.20;;;;;;21005020;28;20329;-72
2022/08/06 07:17:57;;;;;;;2.60;1.63;;;20.20;59.60;;;;;;21004027;28;20267;-71
2022/08/06 07:28:12;;;;;;;1.43;1.10;;;20.50;59.00;;;;;;20999633;28;20229;-72
2022/08/06 07:38:25;;;;;;;3.00;1.07;;;20.60;58.10;;;;;;20969037;28;20247;-72
2022/08/06 07:48:46;;;;;;;2.30;1.13;;;20.80;57.30;;;;;;20969440;28;20232;-71
2022/08/06 07:58:54;;;;;;;3.40;1.17;;;20.80;56.70;;;;;;20917654;28;20207;-70
2022/08/06 08:09:05;;;;;;;1.23;0.80;;;20.90;56.00;;;;;;20917193;28;20258;-71
2022/08/06 08:19:36;;;;;;;6.03;1.20;;;21.10;55.20;;;;;;20975900;28;20211;-73
2022/08/06 08:29:40;;;;;;;3.90;1.20;;;21.10;54.00;;;;;;20927592;28;20231;-69
2022/08/06 08:39:55;;;;;;;2.10;1.00;;;21.30;53.50;;;;;;20961504;28;20199;-70
2022/08/06 08:50:00;;;;;;;4.80;1.53;;;21.30;52.70;;;;;;20942046;28;20247;-69
2022/08/06 09:00:06;;;;;;;1.13;0.90;;;21.50;52.00;;;;;;20993970;28;20233;-70
2022/08/06 09:10:11;;;;;;;1.63;1.33;;;21.70;51.70;;;;;;20931965;28;20231;-69
2022/08/06 09:20:17;;;;;;;1.90;1.00;;;21.80;50.80;;;;;;20934092;28;20221;-70
2022/08/06 09:30:19;;;;;;;4.43;1.00;;;22.00;50.50;;;;;;20994831;28;20246;-71
2022/08/06 09:40:31;;;;;;;1.77;0.80;;;22.20;49.50;;;;;;20996773;28;20285;-69
2022/08/06 09:50:45;;;;;;;2.93;0.90;;;22.30;49.00;;;;;;21010696;28;20246;-70
2022/08/06 10:00:47;;;;;;;2.70;1.00;;;22.60;48.00;;;;;;21004083;28;20203;-73
2022/08/06 10:10:51;;;;;;;5.03;1.60;;;22.70;47.10;;;;;;21009012;28;20231;-75
2022/08/06 10:21:01;;;;;;;5.50;0.90;;;23.10;47.00;;;;;;21000534;28;20655;-70
2022/08/06 10:31:13;;;;;;;3.03;0.90;;;23.20;46.20;;;;;;21001570;28;20231;-69
2022/08/06 10:41:22;;;;;;;2.37;1.07;;;23.20;45.90;;;;;;21007246;28;20290;-69
2022/08/06 10:51:44;;;;;;;1.67;0.97;;;23.30;44.40;;;;;;21006859;28;20254;-69
2022/08/06 11:02:08;;;;;;;6.87;1.93;;;23.20;42.90;;;;;;21005501;28;20268;-68
2022/08/06 11:12:28;;;;;;;6.27;1.03;;;23.50;43.10;;;;;;21008409;28;20599;-70
2022/08/06 11:22:40;;;;;;;1.83;0.77;;;23.70;43.00;;;;;;20975883;28;20235;-70
2022/08/06 11:32:54;;;;;;;1.13;0.70;;;23.80;41.60;;;;;;20918200;28;20236;-69
2022/08/06 11:42:56;;;;;;;1.63;0.80;;;24.00;41.00;;;;;;20919341;28;20208;-69
2022/08/06 11:52:58;;;;;;;1.13;0.80;;;24.10;40.00;;;;;;20919161;28;20254;-69
2022/08/06 12:03:00;;;;;;;2.57;0.70;;;24.30;39.80;;;;;;20899313;28;20258;-70
2022/08/06 12:13:02;;;;;;;2.40;0.70;;;24.50;37.90;;;;;;20916822;28;20242;-72
2022/08/06 12:23:23;;;;;;;0.80;0.70;;;24.80;37.40;;;;;;20916921;28;20204;-70
2022/08/06 12:33:45;;;;;;;1.53;0.90;;;24.90;35.10;;;;;;20915323;28;20235;-71
2022/08/06 12:43:48;;;;;;;1.80;0.60;;;25.10;34.20;;;;;;20914658;28;20211;-69
2022/08/06 12:54:04;;;;;;;1.13;0.70;;;25.30;34.80;;;;;;20913903;28;20250;-71
2022/08/06 13:04:09;;;;;;;2.83;0.70;;;25.40;35.20;;;;;;20913452;28;20797;-73
2022/08/06 13:14:17;;;;;;;0.50;0.50;;;25.40;35.50;;;;;;20911438;28;20246;-67
2022/08/06 13:24:26;;;;;;;2.00;1.00;;;25.30;35.00;;;;;;20908168;28;21309;-67
2022/08/06 13:34:51;;;;;;;0.40;0.40;;;25.70;33.90;;;;;;20909699;28;20235;-68
2022/08/06 13:44:53;;;;;;;2.97;0.83;;;25.50;34.10;;;;;;20911559;28;20570;-67
2022/08/06 13:54:57;;;;;;;1.83;0.60;;;25.50;34.60;;;;;;20902751;28;20239;-69
2022/08/06 14:04:59;;;;;;;6.10;1.00;;;25.60;34.70;;;;;;20910847;28;20294;-68
2022/08/06 14:15:00;;;;;;;2.50;0.90;;;25.60;34.70;;;;;;20909067;28;20216;-69
2022/08/06 14:25:02;;;;;;;1.63;0.60;;;25.70;34.70;;;;;;20912233;28;20212;-68
2022/08/06 14:35:05;;;;;;;2.10;0.80;;;25.80;34.30;;;;;;20932906;28;20207;-69
2022/08/06 14:45:08;;;;;;;2.13;0.90;;;26.00;33.50;;;;;;20924269;28;20204;-68
2022/08/06 14:55:15;;;;;;;1.20;0.70;;;26.20;33.40;;;;;;20923212;28;20664;-68
2022/08/06 15:05:23;;;;;;;0.70;0.50;;;27.10;33.30;;;;;;20920670;28;20682;-68
2022/08/06 15:15:41;;;;;;;1.90;0.70;;;27.80;31.60;;;;;;20921710;28;20260;-66
2022/08/06 15:25:48;;;;;;;2.20;0.70;;;26.90;32.20;;;;;;20919019;28;20235;-68
2022/08/06 15:36:11;;;;;;;1.13;0.63;;;26.70;32.50;;;;;;20919179;28;20281;-69
2022/08/06 15:46:15;;;;;;;0.60;0.60;;;26.30;32.40;;;;;;20918338;28;20246;-68
2022/08/06 15:56:30;;;;;;;2.40;0.87;;;26.00;32.20;;;;;;20918763;28;20204;-68
2022/08/06 16:06:35;;;;;;;0.83;0.70;;;25.80;32.30;;;;;;20917811;28;20239;-68
2022/08/06 16:16:37;;;;;;;1.37;0.80;;;25.70;32.40;;;;;;20916915;28;20208;-68
2022/08/06 16:26:40;;;;;;;2.97;0.80;;;25.70;32.60;;;;;;20916095;28;20270;-68
2022/08/06 16:36:54;;;;;;;1.50;0.80;;;25.60;32.90;;;;;;20916574;28;20246;-68
2022/08/06 16:46:57;;;;;;;0.73;0.70;;;25.80;32.90;;;;;;20914154;28;20247;-69
2022/08/06 16:56:59;;;;;;;1.70;0.73;;;25.50;33.50;;;;;;20913698;28;20208;-70
2022/08/06 17:07:01;;;;;;;1.70;1.17;;;25.40;33.90;;;;;;20913444;28;20249;-68
2022/08/06 17:17:05;;;;;;;2.00;1.03;;;25.30;34.00;;;;;;20912148;28;20210;-68
2022/08/06 17:27:10;;;;;;;6.20;1.10;;;25.20;35.00;;;;;;20911005;28;20236;-72
2022/08/06 17:37:16;;;;;;;1.97;0.87;;;25.10;36.20;;;;;;20910708;28;20211;-72
2022/08/06 17:47:23;;;;;;;5.33;0.90;;;25.10;36.70;;;;;;20912226;28;20559;-71
2022/08/06 17:57:45;;;;;;;4.30;1.10;;;25.00;36.80;;;;;;20910234;28;20208;-66
2022/08/06 18:08:07;;;;;;;1.73;0.80;;;24.90;37.30;;;;;;20923213;28;20610;-67
2022/08/06 18:18:28;;;;;;;5.00;1.20;;;24.70;37.50;;;;;;20924211;28;20204;-66
2022/08/06 18:28:30;;;;;;;8.03;1.53;;;24.60;37.40;;;;;;20924880;28;20600;-65
2022/08/06 18:38:50;;;;;;;0.87;0.80;;;24.40;37.50;;;;;;20923802;28;20204;-67
2022/08/06 18:48:52;;;;;;;1.00;0.80;;;24.20;37.50;;;;;;20972015;28;20235;-68
2022/08/06 18:58:53;;;;;;;6.57;1.13;;;24.00;37.70;;;;;;20985625;28;20701;-68
2022/08/06 19:08:59;;;;;;;8.00;1.13;;;23.70;38.00;;;;;;20921911;28;20308;-67
2022/08/06 19:19:01;;;;;;;3.40;0.87;;;23.50;38.30;;;;;;20922203;28;20686;-66
2022/08/06 19:29:05;;;;;;;1.47;0.90;;;23.30;38.60;;;;;;20920374;28;20243;-67
2022/08/06 19:39:06;;;;;;;6.00;0.97;;;23.20;39.00;;;;;;20970401;28;20606;-67
2022/08/06 19:49:28;;;;;;;5.53;1.00;;;23.00;39.60;;;;;;21002411;28;20239;-70
2022/08/06 19:59:42;;;;;;;6.47;1.00;;;22.80;39.70;;;;;;21000696;28;20257;-68
2022/08/06 20:10:05;;;;;;;3.07;1.07;;;22.60;40.10;;;;;;20998309;28;20235;-69
2022/08/06 20:20:27;;;;;;;2.20;0.80;;;22.50;40.50;;;;;;20978837;28;20202;-68
2022/08/06 20:30:31;;;;;;;1.40;0.90;;;22.40;40.90;;;;;;20989077;28;20239;-68
2022/08/06 20:40:34;;;;;;;1.73;0.60;;;22.20;41.30;;;;;;20995798;28;20232;-69
2022/08/06 20:50:55;;;;;;;3.87;1.00;;;22.00;41.60;;;;;;20997350;28;20238;-69
2022/08/06 21:00:57;;;;;;;2.03;0.60;;;22.00;41.90;;;;;;20996438;28;20209;-69
2022/08/06 21:10:59;;;;;;;0.97;0.80;;;21.80;42.10;;;;;;20938814;28;20278;-69
2022/08/06 21:21:02;;;;;;;0.97;0.77;;;21.70;42.20;;;;;;20912853;28;20212;-69
2022/08/06 21:31:04;;;;;;;2.53;0.90;;;21.70;42.50;;;;;;20912130;28;20239;-69
2022/08/06 21:51:47;;;;;;;3.00;1.00;;;21.60;42.80;;;;;;20929010;28;20694;-69
2022/08/06 22:01:54;;;;;;;1.20;0.90;;;21.40;42.90;;;;;;20927821;28;20662;-69
2022/08/06 22:12:15;;;;;;;1.17;0.70;;;21.40;43.20;;;;;;20927196;28;20238;-68
2022/08/06 22:22:37;;;;;;;1.70;0.90;;;21.30;43.20;;;;;;20926938;28;20207;-69
2022/08/06 22:32:39;;;;;;;0.70;0.70;;;21.30;43.20;;;;;;20860441;28;20235;-69
2022/08/06 22:42:41;;;;;;;2.23;1.00;;;21.10;43.10;;;;;;20840673;28;20216;-68
2022/08/06 22:53:02;;;;;;;1.00;0.90;;;21.00;43.60;;;;;;20900314;28;20640;-69
2022/08/06 23:03:24;;;;;;;2.40;0.80;;;20.90;43.80;;;;;;20924539;28;20211;-70
2022/08/06 23:13:27;;;;;;;0.77;0.73;;;20.80;44.20;;;;;;20922782;28;20289;-69
2022/08/06 23:23:46;;;;;;;3.00;0.83;;;20.70;44.50;;;;;;20922273;28;20214;-68
2022/08/06 23:33:50;;;;;;;8.47;1.10;;;20.60;44.90;;;;;;20920912;28;20594;-69
2022/08/06 23:44:01;;;;;;;3.63;1.10;;;20.30;45.30;;;;;;20921454;28;20649;-69
2022/08/06 23:54:04;;;;;;;1.07;0.97;;;20.30;45.80;;;;;;20843578;28;20241;-70
